Time;durP1;ratioP1;P1;durP2;ratioP2;P2;SDS_P1;SDS_P2;PMS_P1;PMS_P2;Temp;Humidity;BMP_temperature;BMP_pressure;BME280_temperature;BME280_humidity;BME280_pressure;Samples;Min_cycle;Max_cycle;Signal;HPM_P1;HPM_P2
2022/07/29 00:00:57;;;;;;;8.65;1.80;;;;;;;-144.47;40.31;53118.28;5012868;28;20037;-66
2022/07/29 00:03:22;;;;;;;11.55;2.38;;;;;;;-144.47;40.39;53120.25;5011385;28;20105;-66
2022/07/29 00:05:48;;;;;;;9.65;1.95;;;;;;;-144.47;40.42;53104.38;4995260;28;20468;-66
2022/07/29 00:08:15;;;;;;;8.23;1.77;;;;;;;-144.47;40.40;53102.38;5011574;28;20018;-66
2022/07/29 00:10:41;;;;;;;4.38;1.83;;;;;;;-144.47;40.46;53110.31;5011964;28;20040;-65
2022/07/29 00:13:07;;;;;;;8.35;1.73;;;;;;;-144.47;40.41;53118.28;5011333;28;20029;-65
2022/07/29 00:15:32;;;;;;;4.82;1.63;;;;;;;-144.47;40.55;53094.44;5011446;28;20037;-65
2022/07/29 00:17:57;;;;;;;14.20;2.47;;;;;;;-144.47;40.48;53132.19;5011892;28;20025;-66
2022/07/29 00:20:23;;;;;;;6.93;1.83;;;;;;;-144.47;40.65;53106.34;5011522;28;20041;-67
2022/07/29 00:22:48;;;;;;;8.13;1.80;;;;;;;-144.47;40.69;53116.28;5011746;28;20045;-66
2022/07/29 00:25:13;;;;;;;7.90;1.77;;;;;;;-144.47;40.69;53090.47;5013093;28;20376;-65
2022/07/29 00:27:39;;;;;;;5.07;1.90;;;;;;;-144.47;40.73;53128.22;5011807;28;20017;-67
2022/07/29 00:30:06;;;;;;;8.63;1.92;;;;;;;-144.47;40.70;53118.28;5012023;28;20507;-65
2022/07/29 00:32:32;;;;;;;10.48;1.80;;;;;;;-144.47;40.71;53122.25;5011419;28;20030;-65
2022/07/29 00:37:41;;;;;;;11.85;2.05;;;;;;;-144.47;40.84;53146.09;5011084;28;20024;-66
2022/07/29 00:40:07;;;;;;;8.73;2.05;;;;;;;-144.47;40.83;53080.53;5012349;28;20026;-66
2022/07/29 00:42:52;;;;;;;10.55;2.30;;;;;;;-144.47;40.85;53064.66;4994646;28;20026;-66
2022/07/29 00:45:18;;;;;;;4.68;1.73;;;;;;;-144.47;40.98;53124.22;5011023;28;20036;-65
2022/07/29 00:47:44;;;;;;;9.50;1.88;;;;;;;-144.47;40.97;53120.25;4994005;28;20204;-67
2022/07/29 00:50:11;;;;;;;9.45;2.17;;;;;;;-144.47;41.01;53100.41;5010393;28;20047;-66
2022/07/29 00:52:39;;;;;;;11.52;1.73;;;;;;;-144.47;41.13;53098.41;5011518;28;20030;-65
2022/07/29 00:55:07;;;;;;;12.48;2.33;;;;;;;-144.47;41.10;53128.22;4993846;28;20028;-66
2022/07/29 00:57:34;;;;;;;6.72;1.75;;;;;;;-144.47;41.24;53078.53;5010349;28;20033;-66
2022/07/29 01:00:00;;;;;;;6.07;1.60;;;;;;;-144.47;41.22;53136.16;5011574;28;20658;-67
2022/07/29 01:02:25;;;;;;;8.27;1.40;;;;;;;-144.47;41.18;53116.28;5010527;28;20231;-66
2022/07/29 01:04:51;;;;;;;8.93;1.75;;;;;;;-144.47;41.25;53112.31;5010350;28;20053;-66
2022/07/29 01:07:17;;;;;;;5.97;1.70;;;;;;;-144.47;41.25;53126.22;4992578;28;20025;-65
2022/07/29 01:09:45;;;;;;;6.25;2.47;;;;;;;-144.47;41.39;53094.44;5010456;28;20053;-67
2022/07/29 01:12:12;;;;;;;6.93;1.83;;;;;;;-144.47;41.40;53134.16;5011932;28;20555;-66
2022/07/29 01:14:38;;;;;;;7.40;2.13;;;;;;;-144.47;41.37;53102.38;4993917;28;20044;-66
2022/07/29 01:17:28;;;;;;;9.32;2.10;;;;;;;-144.47;41.37;53132.19;5004542;28;20022;-66
2022/07/29 01:19:59;;;;;;;6.25;1.80;;;;;;;-144.47;41.53;53165.94;5029432;28;20493;-67
2022/07/29 01:22:28;;;;;;;10.15;2.42;;;;;;;-144.47;41.39;53138.13;5020031;28;20026;-66
2022/07/29 01:25:03;;;;;;;5.82;1.70;;;;;;;-144.47;41.55;53110.31;5010171;28;20124;-66
2022/07/29 01:27:57;;;;;;;12.45;1.98;;;;;;;-144.47;41.51;53128.22;5010915;28;20078;-67
2022/07/29 01:30:25;;;;;;;3.90;1.90;;;;;;;-144.47;41.60;53096.41;5009873;28;20030;-67
2022/07/29 01:32:56;;;;;;;12.10;2.10;;;;;;;-144.47;41.65;53122.25;5015167;28;20029;-66
2022/07/29 01:35:39;;;;;;;8.13;2.15;;;;;;;-144.47;41.68;53142.09;5014910;28;20026;-66
2022/07/29 01:38:17;;;;;;;7.00;1.95;;;;;;;-144.47;41.82;53114.31;5008253;28;20109;-66
2022/07/29 01:40:53;;;;;;;5.03;1.80;;;;;;;-144.47;41.77;53088.47;5011218;28;20022;-65
2022/07/29 01:43:24;;;;;;;13.27;2.20;;;;;;;-144.47;41.84;53104.38;5011046;28;20471;-66
2022/07/29 01:46:19;;;;;;;5.90;2.08;;;;;;;-144.47;41.94;53130.19;5011125;28;20034;-66
2022/07/29 01:49:11;;;;;;;6.68;2.15;;;;;;;-144.47;41.84;53120.25;5010175;28;20044;-66
2022/07/29 01:51:46;;;;;;;8.50;2.08;;;;;;;-144.47;41.82;53082.53;4988844;28;20033;-66
2022/07/29 01:54:31;;;;;;;13.45;2.33;;;;;;;-144.47;42.00;53118.28;5006336;28;20505;-64
2022/07/29 01:56:58;;;;;;;6.97;1.67;;;;;;;-144.47;41.98;53118.28;5008010;28;20502;-66
2022/07/29 01:59:25;;;;;;;6.90;1.80;;;;;;;-144.47;42.05;53090.47;5021168;28;20490;-68
2022/07/29 02:01:53;;;;;;;13.43;2.50;;;;;;;-144.47;41.97;53126.22;5030311;28;20539;-66
2022/07/29 02:04:20;;;;;;;7.50;1.83;;;;;;;-144.47;41.91;53108.34;5012605;28;20029;-67
2022/07/29 02:06:50;;;;;;;8.18;1.92;;;;;;;-144.47;42.07;53106.34;5029723;28;20266;-65
2022/07/29 02:09:17;;;;;;;8.95;2.08;;;;;;;-144.47;42.01;53144.09;5027971;28;20025;-67
2022/07/29 02:11:49;;;;;;;5.00;1.80;;;;;;;-144.47;42.11;53136.16;5030341;28;20036;-66
2022/07/29 02:14:17;;;;;;;7.45;1.67;;;;;;;-144.47;42.03;53106.34;5029087;28;20030;-66
2022/07/29 02:16:45;;;;;;;7.45;1.98;;;;;;;-144.47;42.05;53104.38;4995918;28;20025;-67
2022/07/29 02:19:13;;;;;;;9.63;1.83;;;;;;;-144.47;42.05;53098.41;5029590;28;20060;-66
2022/07/29 02:21:40;;;;;;;6.97;1.55;;;;;;;-144.47;42.08;53126.22;5028742;28;20037;-67
2022/07/29 02:24:07;;;;;;;5.65;1.77;;;;;;;-144.47;42.10;53122.25;5028979;28;20026;-64
2022/07/29 02:26:33;;;;;;;5.05;1.63;;;;;;;-144.47;42.15;53134.16;5029155;28;20551;-66
2022/07/29 02:29:01;;;;;;;4.70;1.90;;;;;;;-144.47;42.15;53116.28;5030066;28;20022;-66
2022/07/29 02:31:32;;;;;;;10.23;2.17;;;;;;;-144.47;42.07;53118.28;5040561;22;20135;-68
2022/07/29 02:33:58;;;;;;;5.80;1.90;;;;;;;-144.47;42.10;53114.31;5020472;28;20174;-67
2022/07/29 02:36:25;;;;;;;6.35;2.13;;;;;;;-144.47;42.17;53152.03;5028074;28;20467;-68
2022/07/29 02:38:53;;;;;;;7.15;2.60;;;;;;;-144.47;42.25;53122.25;5026623;28;20040;-70
2022/07/29 02:41:30;;;;;;;5.30;2.13;;;;;;;-144.47;42.15;53130.19;5011712;28;20103;-67
2022/07/29 02:44:06;;;;;;;11.73;1.70;;;;;;;-144.47;42.18;53108.34;5007227;28;20030;-66
2022/07/29 02:46:35;;;;;;;9.00;1.98;;;;;;;-144.47;42.08;53124.22;5008253;28;20096;-68
2022/07/29 02:49:08;;;;;;;10.40;2.15;;;;;;;-144.47;42.30;53112.31;5007385;28;20042;-67
2022/07/29 02:51:42;;;;;;;5.90;1.88;;;;;;;-144.47;42.22;53130.19;5007149;28;20026;-66
2022/07/29 02:54:10;;;;;;;11.40;2.25;;;;;;;-144.47;42.45;53114.31;5007826;28;20029;-67
2022/07/29 02:56:39;;;;;;;7.40;1.90;;;;;;;-144.47;42.50;53146.09;5006566;28;20030;-66
2022/07/29 02:59:09;;;;;;;5.00;1.67;;;;;;;-144.47;42.46;53138.13;5007591;28;20053;-64
2022/07/29 03:01:35;;;;;;;5.80;1.77;;;;;;;-144.47;42.53;53116.28;5007142;28;20064;-65
2022/07/29 03:04:04;;;;;;;9.32;2.00;;;;;;;-144.47;42.54;53130.19;5006933;28;20098;-68
2022/07/29 03:06:30;;;;;;;8.40;1.95;;;;;;;-144.47;42.64;53150.06;5007134;28;20108;-67
2022/07/29 03:08:58;;;;;;;3.05;1.40;;;;;;;-144.47;42.75;53152.03;5007424;28;20439;-65
2022/07/29 03:11:24;;;;;;;7.05;1.80;;;;;;;-144.47;42.77;53134.16;5009298;28;20495;-65
2022/07/29 03:13:50;;;;;;;5.90;1.83;;;;;;;-144.47;42.79;53102.38;5009185;28;20033;-68
2022/07/29 03:16:18;;;;;;;9.02;1.92;;;;;;;-144.47;42.89;53148.06;5006947;28;20068;-66
2022/07/29 03:18:43;;;;;;;9.98;2.03;;;;;;;-144.47;42.89;53118.28;4974703;28;20048;-70
2022/07/29 03:21:09;;;;;;;9.50;2.20;;;;;;;-144.47;43.12;53124.22;4995204;28;20029;-65
2022/07/29 03:23:34;;;;;;;12.93;2.30;;;;;;;-144.47;43.18;53114.31;5004869;28;20411;-64
2022/07/29 03:26:00;;;;;;;12.90;1.77;;;;;;;-144.47;43.33;53140.13;5012538;28;20052;-66
2022/07/29 03:28:27;;;;;;;8.35;1.83;;;;;;;-144.47;43.29;53110.31;5010478;28;20050;-69
2022/07/29 03:30:52;;;;;;;9.80;1.90;;;;;;;-144.47;43.29;53152.03;5011949;28;20499;-68
2022/07/29 03:33:18;;;;;;;8.05;2.00;;;;;;;-144.47;43.50;53118.28;5019216;28;20031;-68
2022/07/29 03:35:43;;;;;;;8.35;1.85;;;;;;;-144.47;43.62;53094.44;5013660;28;20033;-68
2022/07/29 03:38:09;;;;;;;7.15;2.00;;;;;;;-144.47;43.60;53090.47;5009077;28;20053;-68
2022/07/29 03:40:52;;;;;;;7.03;1.83;;;;;;;-144.47;43.60;53173.88;5010494;28;20022;-65
2022/07/29 03:43:19;;;;;;;11.43;1.73;;;;;;;-144.47;43.68;53146.09;4994784;28;20030;-68
2022/07/29 03:45:49;;;;;;;15.30;2.00;;;;;;;-144.47;43.84;53150.06;5011135;28;20022;-70
2022/07/29 03:48:17;;;;;;;7.88;1.92;;;;;;;-144.47;43.86;53132.19;4993562;28;20395;-67
2022/07/29 03:50:44;;;;;;;17.33;2.00;;;;;;;-144.47;44.08;53128.22;5011513;28;20028;-67
2022/07/29 03:53:09;;;;;;;4.82;1.85;;;;;;;-144.47;44.03;53171.91;5010455;28;20061;-69
2022/07/29 03:55:44;;;;;;;9.55;1.88;;;;;;;-144.47;44.14;53158.00;5010846;28;20055;-68
2022/07/29 03:58:11;;;;;;;6.35;1.95;;;;;;;-144.47;44.05;53142.09;4992453;28;20033;-67
2022/07/29 04:00:38;;;;;;;5.93;1.70;;;;;;;-144.47;44.11;53124.22;5010111;28;20036;-65
2022/07/29 04:03:04;;;;;;;9.98;2.00;;;;;;;-144.47;43.91;53136.16;5010963;28;20492;-68
2022/07/29 04:05:30;;;;;;;8.52;1.63;;;;;;;-144.47;43.99;53128.22;5009972;28;20441;-68
2022/07/29 04:07:56;;;;;;;6.35;1.90;;;;;;;-144.47;43.94;53126.22;5008580;28;20021;-66
2022/07/29 04:10:22;;;;;;;13.43;2.38;;;;;;;-144.47;43.86;53140.13;5011371;28;20638;-64
2022/07/29 04:12:48;;;;;;;8.35;1.70;;;;;;;-144.47;43.88;53128.22;5009894;28;20018;-65
2022/07/29 04:15:14;;;;;;;9.23;1.85;;;;;;;-144.47;43.86;53122.25;4977523;28;20049;-67
2022/07/29 04:17:39;;;;;;;15.57;2.03;;;;;;;-144.47;43.81;53165.94;5009860;28;20494;-68
2022/07/29 04:20:05;;;;;;;11.18;2.00;;;;;;;-144.47;43.76;53167.94;5010993;28;20046;-67
2022/07/29 04:22:31;;;;;;;8.25;2.15;;;;;;;-144.47;43.96;53161.97;5007885;28;20025;-66
2022/07/29 04:24:56;;;;;;;12.43;2.13;;;;;;;-144.47;43.81;53100.41;5011336;28;20025;-67
2022/07/29 04:27:21;;;;;;;10.77;2.30;;;;;;;-144.47;43.76;53082.53;5009014;28;20026;-68
2022/07/29 04:29:47;;;;;;;9.65;1.67;;;;;;;-144.47;43.61;53138.13;5011405;28;20017;-65
2022/07/29 04:32:12;;;;;;;11.30;1.90;;;;;;;-144.47;43.69;53150.06;5005984;28;20407;-68
2022/07/29 04:34:38;;;;;;;10.48;2.25;;;;;;;-144.47;43.42;53126.22;5019570;28;20022;-65
2022/07/29 04:37:03;;;;;;;14.90;2.22;;;;;;;-144.47;43.56;53118.28;5007744;28;20030;-69
2022/07/29 04:39:28;;;;;;;14.75;2.17;;;;;;;-144.47;43.58;53142.09;4992668;28;20026;-65
2022/07/29 04:41:54;;;;;;;11.30;2.20;;;;;;;-144.47;43.50;53110.31;5010262;28;20104;-67
2022/07/29 04:44:19;;;;;;;8.18;1.95;;;;;;;-144.47;43.36;53138.13;5005829;28;20038;-66
2022/07/29 04:46:45;;;;;;;13.82;2.40;;;;;;;-144.47;43.35;53114.31;5005809;28;20029;-65
2022/07/29 04:49:10;;;;;;;10.18;2.20;;;;;;;-144.47;43.32;53114.31;5010257;28;20069;-65
2022/07/29 04:51:36;;;;;;;7.35;2.20;;;;;;;-144.47;43.48;53128.22;5010305;28;20034;-69
2022/07/29 04:54:01;;;;;;;16.83;3.17;;;;;;;-144.47;43.34;53086.50;5010511;28;20117;-65
2022/07/29 04:56:27;;;;;;;9.15;2.78;;;;;;;-144.47;43.38;53110.31;5011182;28;20443;-65
2022/07/29 04:58:52;;;;;;;12.43;2.55;;;;;;;-144.47;43.21;53114.31;5011728;28;20113;-67
2022/07/29 05:01:18;;;;;;;7.72;2.50;;;;;;;-144.47;43.10;53126.22;5011973;28;20514;-67
2022/07/29 05:03:44;;;;;;;12.10;2.13;;;;;;;-144.47;43.02;53108.34;5013135;28;20057;-67
2022/07/29 05:06:10;;;;;;;6.75;2.20;;;;;;;-144.47;43.13;53122.25;5012971;28;20026;-70
2022/07/29 05:08:35;;;;;;;7.88;2.55;;;;;;;-144.47;42.87;53126.22;4995625;28;20080;-70
2022/07/29 05:11:01;;;;;;;10.55;2.25;;;;;;;-144.47;42.87;53084.50;4996582;28;20114;-67
2022/07/29 05:13:26;;;;;;;7.43;2.50;;;;;;;-144.47;42.54;53136.16;5012715;28;20095;-68
2022/07/29 05:15:52;;;;;;;9.55;2.50;;;;;;;-144.47;42.66;53160.00;5012625;28;20064;-70
2022/07/29 05:18:17;;;;;;;15.13;2.50;;;;;;;-144.47;42.47;53094.44;4994501;28;20033;-68
2022/07/29 05:20:42;;;;;;;7.60;2.33;;;;;;;-144.47;42.50;53118.28;5009481;28;20030;-68
2022/07/29 05:23:08;;;;;;;8.60;2.40;;;;;;;-144.47;42.43;53142.09;5002691;28;20121;-65
2022/07/29 05:25:34;;;;;;;14.80;2.78;;;;;;;-144.47;42.28;53128.22;5009857;28;20026;-70
2022/07/29 05:27:59;;;;;;;14.98;2.60;;;;;;;-144.47;42.32;53102.38;5009092;28;20554;-66
2022/07/29 05:30:28;;;;;;;4.75;2.00;;;;;;;-144.47;42.22;53102.38;5010506;28;20034;-66
2022/07/29 05:32:53;;;;;;;13.13;2.22;;;;;;;-144.47;41.89;53100.41;5014231;28;20048;-69
2022/07/29 05:35:18;;;;;;;16.48;2.40;;;;;;;-144.47;42.04;53177.88;5013753;28;20459;-64
2022/07/29 05:37:44;;;;;;;8.10;2.20;;;;;;;-144.47;42.00;53120.25;5006867;28;20045;-69
2022/07/29 05:40:10;;;;;;;16.83;2.72;;;;;;;-144.47;41.95;53092.44;5010518;28;20030;-66
2022/07/29 05:42:35;;;;;;;7.38;2.05;;;;;;;-144.47;41.97;53104.38;5009604;28;20553;-66
2022/07/29 05:45:01;;;;;;;9.57;2.63;;;;;;;-144.47;42.05;53090.47;5010146;28;20018;-66
2022/07/29 05:47:27;;;;;;;6.38;2.10;;;;;;;-144.47;42.12;53100.41;5007490;28;20402;-69
2022/07/29 05:49:53;;;;;;;9.73;2.85;;;;;;;-144.47;42.19;53158.00;5009440;28;20041;-65
2022/07/29 05:52:19;;;;;;;15.23;2.50;;;;;;;-144.47;42.23;53116.28;5007024;28;20456;-67
2022/07/29 05:54:44;;;;;;;9.82;2.72;;;;;;;-144.47;42.07;53104.38;5003852;28;20113;-67
2022/07/29 05:57:21;;;;;;;15.32;2.88;;;;;;;-144.47;41.95;53128.22;5003906;28;20018;-69
2022/07/29 05:59:47;;;;;;;9.95;2.28;;;;;;;-144.47;41.90;53116.28;5004599;28;20287;-65
2022/07/29 06:02:13;;;;;;;11.27;3.72;;;;;;;-144.47;41.81;53122.25;4975856;28;20540;-66
2022/07/29 06:04:38;;;;;;;14.93;2.40;;;;;;;-144.47;41.70;53080.53;5008372;28;20049;-65
2022/07/29 06:07:04;;;;;;;14.82;2.90;;;;;;;-144.47;41.57;53104.38;5008604;28;20084;-70
2022/07/29 06:09:30;;;;;;;5.68;2.20;;;;;;;-144.47;41.43;53078.53;4992226;28;20463;-66
2022/07/29 06:11:56;;;;;;;17.15;2.53;;;;;;;-144.47;41.63;53122.25;5007971;28;20026;-67
2022/07/29 06:14:21;;;;;;;15.77;2.60;;;;;;;-144.47;41.32;53102.38;5009655;28;20042;-69
2022/07/29 06:16:46;;;;;;;14.45;2.83;;;;;;;-144.47;41.65;53078.53;5007362;28;20096;-66
2022/07/29 06:19:12;;;;;;;10.13;2.50;;;;;;;-144.47;41.48;53128.22;5008803;28;20022;-68
2022/07/29 06:21:42;;;;;;;8.98;2.50;;;;;;;-144.47;41.26;53142.09;5009360;28;20021;-68
2022/07/29 06:24:07;;;;;;;15.23;2.40;;;;;;;-144.47;41.28;53090.47;4974850;28;20103;-66
2022/07/29 06:26:33;;;;;;;21.58;2.90;;;;;;;-144.47;41.25;53114.31;5007456;28;20030;-69
2022/07/29 06:28:58;;;;;;;20.35;3.13;;;;;;;-144.47;41.14;53124.22;5007604;28;20096;-68
2022/07/29 06:31:23;;;;;;;17.02;2.83;;;;;;;-144.47;40.96;53108.34;5007902;28;20406;-66
2022/07/29 06:33:49;;;;;;;9.52;2.40;;;;;;;-144.47;40.99;53114.31;5016306;28;20031;-69
2022/07/29 06:36:15;;;;;;;18.20;2.95;;;;;;;-144.47;40.75;53110.31;5007707;28;20076;-68
2022/07/29 06:38:40;;;;;;;12.73;2.35;;;;;;;-144.47;40.63;53132.19;5007747;28;20026;-70
2022/07/29 06:41:11;;;;;;;13.40;2.13;;;;;;;-144.47;40.94;53116.28;5008870;28;20487;-67
2022/07/29 06:43:41;;;;;;;14.75;2.97;;;;;;;-144.47;40.85;53120.25;5007544;28;20037;-67
2022/07/29 06:46:15;;;;;;;14.70;2.75;;;;;;;-144.47;40.66;53116.28;5009458;28;20033;-66
2022/07/29 06:48:45;;;;;;;12.65;3.03;;;;;;;-144.47;40.60;53124.22;5007267;28;20018;-67
2022/07/29 06:51:11;;;;;;;14.88;2.75;;;;;;;-144.47;40.34;53106.34;5008835;28;20104;-69
2022/07/29 06:53:38;;;;;;;16.65;3.33;;;;;;;-144.47;39.70;53106.34;5006508;28;20034;-70
2022/07/29 06:56:05;;;;;;;16.27;2.80;;;;;;;-144.47;39.57;53064.66;5012710;28;20026;-69
2022/07/29 06:58:30;;;;;;;7.43;2.85;;;;;;;-144.47;39.47;53098.41;5011829;28;20022;-67
2022/07/29 07:00:57;;;;;;;17.75;2.47;;;;;;;-144.47;39.28;53070.59;5012218;28;20037;-66
2022/07/29 07:03:23;;;;;;;15.35;2.97;;;;;;;-144.47;39.17;53114.31;5012316;28;20395;-66
2022/07/29 07:05:49;;;;;;;8.30;2.60;;;;;;;-144.47;38.99;53086.50;4994095;28;20080;-69
2022/07/29 07:08:15;;;;;;;9.93;2.90;;;;;;;-144.47;39.07;53082.53;5009663;28;20483;-66
2022/07/29 07:10:42;;;;;;;14.15;4.22;;;;;;;-144.47;39.12;53048.75;5011359;28;20056;-67
2022/07/29 07:13:07;;;;;;;18.75;3.95;;;;;;;-144.47;38.69;53094.44;5011336;28;20511;-65
2022/07/29 07:15:33;;;;;;;21.35;3.70;;;;;;;-144.47;38.88;53076.56;5014262;28;20030;-68
2022/07/29 07:17:59;;;;;;;14.05;4.22;;;;;;;-144.47;39.06;53118.28;5012824;28;20026;-66
2022/07/29 07:20:24;;;;;;;11.48;4.65;;;;;;;-144.47;39.04;53112.31;5012232;28;20101;-68
2022/07/29 07:22:50;;;;;;;14.15;6.03;;;;;;;-144.47;38.97;53086.50;4988198;28;20204;-66
2022/07/29 07:25:17;;;;;;;15.40;4.60;;;;;;;-144.47;38.96;53092.44;5012887;28;20030;-70
2022/07/29 07:27:43;;;;;;;23.45;5.68;;;;;;;-144.47;38.93;53078.53;5010743;28;20022;-69
2022/07/29 07:30:08;;;;;;;27.33;6.63;;;;;;;-144.47;38.75;53096.41;5011323;28;20524;-65
2022/07/29 07:32:35;;;;;;;19.45;6.38;;;;;;;-144.47;38.67;53070.59;5014167;28;20078;-71
2022/07/29 07:35:00;;;;;;;28.77;6.70;;;;;;;-144.47;38.56;53076.56;5020356;28;20022;-66
2022/07/29 07:37:26;;;;;;;14.05;4.97;;;;;;;-144.47;38.64;53080.53;5010971;28;20048;-71
2022/07/29 07:39:52;;;;;;;19.92;5.90;;;;;;;-144.47;38.44;53098.41;4994402;28;20428;-67
2022/07/29 07:42:18;;;;;;;16.70;5.47;;;;;;;-144.47;38.18;53092.44;5012190;28;20026;-68
2022/07/29 07:44:45;;;;;;;23.23;5.45;;;;;;;-144.47;38.12;53062.66;5012002;28;20026;-66
2022/07/29 07:47:11;;;;;;;24.90;5.82;;;;;;;-144.47;38.17;53070.59;5011185;28;20029;-68
2022/07/29 07:49:36;;;;;;;13.93;5.70;;;;;;;-144.47;38.09;53022.94;5010372;28;20032;-69
2022/07/29 07:52:02;;;;;;;11.52;4.72;;;;;;;-144.47;37.97;53046.75;5010914;28;20050;-68
2022/07/29 07:54:27;;;;;;;15.32;4.90;;;;;;;-144.47;37.95;53090.47;5010505;28;20075;-68
2022/07/29 07:56:53;;;;;;;14.13;4.55;;;;;;;-144.47;38.04;53078.53;5006181;28;20477;-71
2022/07/29 07:59:18;;;;;;;13.70;5.20;;;;;;;-144.47;38.04;53086.50;5004058;28;20375;-67
2022/07/29 08:01:44;;;;;;;13.18;4.25;;;;;;;-144.47;37.94;53022.94;4994032;28;20034;-70
2022/07/29 08:04:09;;;;;;;16.90;4.93;;;;;;;-144.47;37.50;53078.53;5010528;28;20109;-72
2022/07/29 08:06:35;;;;;;;22.88;5.40;;;;;;;-144.47;37.70;53088.47;5009496;28;20030;-65
2022/07/29 08:09:03;;;;;;;14.90;4.70;;;;;;;-144.47;37.51;53078.53;5010755;28;20553;-68
2022/07/29 08:11:28;;;;;;;15.57;4.18;;;;;;;-144.47;37.32;53060.66;5009966;28;20026;-67
2022/07/29 08:13:54;;;;;;;12.57;4.72;;;;;;;-144.47;37.42;53052.72;5009668;28;20206;-68
2022/07/29 08:16:20;;;;;;;19.70;4.70;;;;;;;-144.47;37.03;53098.41;5009414;28;20125;-69
2022/07/29 08:18:46;;;;;;;15.32;4.63;;;;;;;-144.47;36.85;53074.56;5009913;28;20026;-68
2022/07/29 08:21:13;;;;;;;11.15;4.03;;;;;;;-144.47;36.71;53074.56;5011858;28;20096;-69
2022/07/29 08:23:39;;;;;;;16.95;4.88;;;;;;;-144.47;36.68;53046.75;5008884;28;20484;-67
2022/07/29 08:26:05;;;;;;;12.90;4.50;;;;;;;-144.47;36.31;53070.59;5010199;28;20026;-70
2022/07/29 08:28:31;;;;;;;18.10;4.75;;;;;;;-144.47;36.30;53058.69;4993029;28;20084;-69
2022/07/29 08:30:56;;;;;;;16.10;4.20;;;;;;;-144.47;35.81;53082.53;5032324;22;20450;-69
2022/07/29 08:33:22;;;;;;;17.13;5.20;;;;;;;-144.47;35.80;53016.97;5020786;28;20024;-68
2022/07/29 08:35:47;;;;;;;14.98;4.15;;;;;;;-144.47;35.51;53054.72;5030916;28;20430;-65
2022/07/29 08:38:13;;;;;;;13.55;4.00;;;;;;;-144.47;35.32;53020.94;5028159;28;20026;-71
2022/07/29 08:40:39;;;;;;;24.88;4.00;;;;;;;-144.47;35.17;53064.66;5031411;28;20116;-68
2022/07/29 08:43:06;;;;;;;17.42;3.88;;;;;;;-144.47;35.02;53042.78;5013704;28;20017;-69
2022/07/29 08:45:43;;;;;;;16.67;4.00;;;;;;;-144.47;35.06;53042.78;5010106;28;20109;-67
2022/07/29 08:48:08;;;;;;;7.47;3.13;;;;;;;-144.47;35.11;53082.53;4993502;28;20029;-66
2022/07/29 08:50:36;;;;;;;12.75;3.72;;;;;;;-144.47;34.98;53032.88;5010272;28;20021;-69
2022/07/29 08:53:02;;;;;;;17.63;3.90;;;;;;;-144.47;35.00;53054.72;5009052;28;20068;-67
2022/07/29 08:55:28;;;;;;;13.23;3.25;;;;;;;-144.47;35.00;53040.81;5010630;28;20030;-66
2022/07/29 08:57:54;;;;;;;9.82;3.08;;;;;;;-144.47;35.23;53042.78;5010746;28;20076;-68
2022/07/29 09:00:22;;;;;;;12.52;3.88;;;;;;;-144.47;34.85;53036.84;5010316;28;20109;-67
2022/07/29 09:02:55;;;;;;;13.02;3.20;;;;;;;-144.47;34.60;53060.66;5011713;28;20026;-66
2022/07/29 09:05:22;;;;;;;13.90;3.10;;;;;;;-144.47;34.19;53036.84;5009426;28;20026;-66
2022/07/29 09:07:48;;;;;;;16.58;3.28;;;;;;;-144.47;34.29;53050.75;5008385;28;20294;-68
2022/07/29 09:10:13;;;;;;;19.05;3.15;;;;;;;-144.47;34.44;53013.00;5010882;28;20097;-66
2022/07/29 09:12:39;;;;;;;12.65;3.00;;;;;;;-144.47;34.14;53046.75;5010065;28;20026;-68
2022/07/29 09:15:05;;;;;;;14.23;3.55;;;;;;;-144.47;34.04;53013.00;5010118;28;20499;-68
2022/07/29 09:17:46;;;;;;;17.25;3.63;;;;;;;-144.47;33.48;53046.75;5009463;28;20503;-65
2022/07/29 09:20:13;;;;;;;11.45;3.33;;;;;;;-144.47;33.23;53034.84;5008904;28;20390;-66
2022/07/29 09:22:39;;;;;;;18.58;3.55;;;;;;;-144.47;33.30;53015.00;5003763;28;20028;-67
2022/07/29 09:25:05;;;;;;;13.85;3.70;;;;;;;-144.47;33.23;53042.78;5009221;28;20402;-69
2022/07/29 09:27:31;;;;;;;16.73;3.25;;;;;;;-144.47;33.33;53052.72;4992774;28;20076;-68
2022/07/29 09:30:10;;;;;;;13.30;3.25;;;;;;;-144.47;33.41;53076.56;5010983;28;20017;-65
2022/07/29 09:32:57;;;;;;;14.23;3.40;;;;;;;-144.47;33.70;53028.88;4994715;28;20088;-67
2022/07/29 09:35:25;;;;;;;14.30;3.60;;;;;;;-144.47;33.17;52991.16;5015886;28;20030;-69
2022/07/29 09:37:51;;;;;;;20.10;4.18;;;;;;;-144.47;32.90;53034.84;5007760;28;20034;-66
2022/07/29 09:40:23;;;;;;;11.93;3.55;;;;;;;-144.47;33.00;52999.09;5009048;28;20022;-65
2022/07/29 09:42:49;;;;;;;15.55;3.90;;;;;;;-144.47;32.75;53022.94;5011081;28;20029;-65
2022/07/29 09:45:32;;;;;;;14.57;3.92;;;;;;;-144.47;32.50;53007.03;5008602;28;20133;-67
2022/07/29 09:48:02;;;;;;;13.80;4.28;;;;;;;-144.47;32.18;53007.03;5008334;28;20052;-69
2022/07/29 09:50:36;;;;;;;9.38;3.88;;;;;;;-144.47;32.45;52995.13;4993344;28;20041;-68
2022/07/29 09:53:01;;;;;;;14.90;3.90;;;;;;;-144.47;32.43;52997.09;5009832;28;20030;-67
2022/07/29 09:55:27;;;;;;;16.45;4.32;;;;;;;-144.47;32.40;53011.00;5010317;28;20045;-70
2022/07/29 09:57:53;;;;;;;13.57;4.45;;;;;;;-144.47;32.12;53030.88;5004486;28;20125;-69
2022/07/29 10:00:21;;;;;;;17.13;3.63;;;;;;;-144.47;31.89;53046.75;5008632;28;20367;-69
2022/07/29 10:02:48;;;;;;;18.20;3.90;;;;;;;-144.47;31.65;53011.00;5010020;28;20609;-69
2022/07/29 10:05:22;;;;;;;9.13;4.00;;;;;;;-144.47;31.73;53011.00;5008374;28;20029;-66
2022/07/29 10:07:55;;;;;;;9.13;3.90;;;;;;;-144.47;31.85;53003.06;5007247;28;20377;-68
2022/07/29 10:10:20;;;;;;;12.23;4.90;;;;;;;-144.47;31.81;53032.88;5008741;28;20029;-68
2022/07/29 10:12:52;;;;;;;12.93;4.22;;;;;;;-144.47;31.67;53016.97;5008139;28;20124;-68
2022/07/29 10:15:17;;;;;;;23.42;4.28;;;;;;;-144.47;31.51;52989.16;5008129;28;20025;-65
2022/07/29 10:17:43;;;;;;;12.13;3.53;;;;;;;-144.47;31.61;52997.09;4991213;28;20075;-67
2022/07/29 10:20:09;;;;;;;14.38;4.10;;;;;;;-144.47;31.33;52947.47;5008232;28;20034;-68
2022/07/29 10:22:35;;;;;;;9.43;4.00;;;;;;;-144.47;30.92;52997.09;5007225;28;20018;-68
2022/07/29 10:25:01;;;;;;;12.77;3.50;;;;;;;-144.47;30.52;52977.25;5007971;28;20112;-69
2022/07/29 10:27:27;;;;;;;9.60;3.05;;;;;;;-144.47;30.14;53015.00;5008834;28;20510;-69
2022/07/29 10:29:53;;;;;;;10.93;3.75;;;;;;;-144.47;30.29;53009.03;4991206;28;20030;-68
2022/07/29 10:32:56;;;;;;;9.13;3.22;;;;;;;-144.47;30.24;52983.22;5005544;28;20400;-69
2022/07/29 10:35:27;;;;;;;15.07;3.10;;;;;;;-144.47;30.41;53005.06;5004356;28;20053;-68
2022/07/29 10:38:31;;;;;;;11.43;3.10;;;;;;;-144.47;30.40;52963.34;5006724;28;20036;-67
2022/07/29 10:43:53;;;;;;;11.68;3.83;;;;;;;-144.47;30.07;52985.19;5009206;28;20124;-70
2022/07/29 10:46:19;;;;;;;8.15;2.97;;;;;;;-144.47;29.84;52961.34;5008950;28;20379;-65
2022/07/29 10:49:04;;;;;;;10.60;3.05;;;;;;;-144.47;29.94;52987.19;5007792;28;20025;-68
2022/07/29 10:51:51;;;;;;;17.40;3.35;;;;;;;-144.47;29.80;52981.22;5009311;28;20104;-68
2022/07/29 10:54:46;;;;;;;16.13;2.80;;;;;;;-144.47;29.90;52959.38;5008953;28;20037;-66
2022/07/29 10:57:17;;;;;;;7.93;2.72;;;;;;;-144.47;29.91;52997.09;5007159;28;20018;-66
2022/07/29 10:59:45;;;;;;;11.43;2.65;;;;;;;-144.47;30.17;52987.19;5007809;28;20068;-66
2022/07/29 11:02:32;;;;;;;14.32;3.55;;;;;;;-144.47;30.00;52979.22;5017855;28;20036;-66
2022/07/29 11:04:57;;;;;;;8.80;2.90;;;;;;;-144.47;29.99;53009.03;5026899;28;20032;-68
2022/07/29 11:07:23;;;;;;;8.57;2.45;;;;;;;-144.47;29.80;53003.06;5026512;28;20029;-66
2022/07/29 11:10:13;;;;;;;8.80;2.55;;;;;;;-144.47;29.24;52963.34;5010691;28;20093;-64
2022/07/29 11:12:42;;;;;;;8.13;2.60;;;;;;;-144.47;28.84;52977.25;5028798;28;20367;-65
2022/07/29 11:15:18;;;;;;;8.10;2.70;;;;;;;-144.47;28.53;52949.44;5028896;28;20037;-68
2022/07/29 11:17:53;;;;;;;8.10;2.47;;;;;;;-144.47;28.52;52941.50;5028311;28;20502;-70
2022/07/29 11:20:47;;;;;;;8.50;2.38;;;;;;;-144.47;28.70;52959.38;5029082;28;20446;-67
2022/07/29 11:23:24;;;;;;;8.90;2.13;;;;;;;-144.47;28.66;52959.38;5026981;28;20030;-66